Time;durP1;ratioP1;P1;durP2;ratioP2;P2;SDS_P1;SDS_P2;PMS_P1;PMS_P2;Temp;Humidity;BMP_temperature;BMP_pressure;BME280_temperature;BME280_humidity;BME280_pressure;Samples;Min_cycle;Max_cycle;Signal;HPM_P1;HPM_P2
2022/08/25 00:00:21;;;;;;;29.40;9.40;;;;;;;20.31;64.27;99152.44;106011;1276;111527;-70
2022/08/25 00:03:12;;;;;;;26.90;9.50;;;;;;;20.27;64.41;99158.48;105958;1277;97888;-69
2022/08/25 00:05:40;;;;;;;32.00;11.00;;;;;;;20.23;64.57;99163.52;105959;1277;107670;-69
2022/08/25 00:08:08;;;;;;;30.20;9.70;;;;;;;20.20;64.59;99161.14;106036;1277;97772;-68
2022/08/25 00:10:38;;;;;;;32.70;10.40;;;;;;;20.17;64.55;99162.27;106079;1277;98728;-69
2022/08/25 00:13:07;;;;;;;29.00;9.90;;;;;;;20.14;64.52;99162.81;106005;1276;111515;-69
2022/08/25 00:15:37;;;;;;;30.60;10.50;;;;;;;20.10;64.61;99158.52;106017;1277;95215;-69
2022/08/25 00:18:05;;;;;;;31.20;9.10;;;;;;;20.06;64.74;99156.20;105966;1277;107844;-68
2022/08/25 00:20:47;;;;;;;28.90;9.90;;;;;;;20.02;64.81;99155.60;105958;1277;97859;-68
2022/08/25 00:23:17;;;;;;;32.40;10.90;;;;;;;19.98;64.90;99153.04;105995;1277;95442;-67
2022/08/25 00:25:45;;;;;;;28.30;11.40;;;;;;;19.96;64.96;99154.55;106102;1277;111033;-68
2022/08/25 00:28:15;;;;;;;26.60;10.10;;;;;;;19.93;65.10;99151.36;106037;1276;97941;-68
2022/08/25 00:30:44;;;;;;;28.00;10.30;;;;;;;19.89;65.05;99154.70;105960;1277;108262;-68
2022/08/25 00:33:13;;;;;;;30.40;10.60;;;;;;;19.86;65.15;99153.42;106038;1277;98004;-65
2022/08/25 00:35:42;;;;;;;30.50;11.00;;;;;;;19.84;65.18;99155.48;106044;1276;97873;-68
2022/08/25 00:38:11;;;;;;;29.70;11.20;;;;;;;19.79;65.21;99149.83;106030;1276;111452;-68
2022/08/25 00:40:41;;;;;;;28.00;10.30;;;;;;;19.74;65.31;99146.05;105995;1276;95276;-69
2022/08/25 00:43:10;;;;;;;27.10;10.00;;;;;;;19.71;65.41;99148.38;105890;1277;107849;-69
2022/08/25 00:45:39;;;;;;;28.70;10.40;;;;;;;19.70;65.51;99147.84;106034;1276;98242;-69
2022/08/25 00:48:07;;;;;;;29.30;11.50;;;;;;;19.67;65.48;99147.39;106097;1276;97858;-68
2022/08/25 00:50:36;;;;;;;31.80;11.20;;;;;;;19.64;65.49;99150.73;105987;1276;112059;-68
2022/08/25 00:53:07;;;;;;;35.30;11.20;;;;;;;19.62;65.65;99150.92;105978;1277;95387;-67
2022/08/25 00:55:39;;;;;;;26.50;11.00;;;;;;;19.59;65.71;99152.72;106038;1276;107784;-66
2022/08/25 00:58:17;;;;;;;29.20;10.40;;;;;;;19.58;65.82;99153.19;105884;1278;98648;-68
2022/08/25 01:00:49;;;;;;;31.80;10.80;;;;;;;19.57;65.89;99150.66;105839;1277;97961;-67
2022/08/25 01:03:19;;;;;;;32.70;10.60;;;;;;;19.55;65.89;99149.59;105931;1276;112235;-68
2022/08/25 01:05:52;;;;;;;26.40;10.60;;;;;;;19.54;66.03;99144.30;106028;1277;97857;-67
2022/08/25 01:08:26;;;;;;;28.80;10.20;;;;;;;19.53;66.00;99148.38;105904;1277;108446;-68
2022/08/25 01:10:58;;;;;;;25.40;11.60;;;;;;;19.52;66.06;99141.50;105970;1276;97763;-68
2022/08/25 01:13:49;;;;;;;30.50;11.50;;;;;;;19.52;66.15;99149.92;105967;1277;97883;-68
2022/08/25 01:16:18;;;;;;;29.60;10.10;;;;;;;19.51;66.24;99154.30;105957;1276;111909;-68
2022/08/25 01:18:50;;;;;;;34.60;11.90;;;;;;;19.51;66.26;99145.73;105968;1276;97912;-69
2022/08/25 01:21:21;;;;;;;27.00;10.60;;;;;;;19.51;66.35;99149.31;105952;1276;108395;-68
2022/08/25 01:23:51;;;;;;;33.10;10.80;;;;;;;19.49;66.40;99150.52;105935;1277;97992;-68
2022/08/25 01:26:23;;;;;;;32.70;10.60;;;;;;;19.49;66.39;99145.20;105998;1276;95314;-68
2022/08/25 01:31:49;;;;;;;28.90;11.20;;;;;;;19.46;66.47;99150.33;105942;1276;97976;-68
2022/08/25 01:34:20;;;;;;;32.50;10.70;;;;;;;19.44;66.48;99155.38;105956;1277;107748;-69
2022/08/25 01:36:48;;;;;;;30.50;11.70;;;;;;;19.43;66.66;99153.04;105994;1277;97900;-68
2022/08/25 01:39:17;;;;;;;28.90;11.70;;;;;;;19.42;66.58;99157.96;106023;1276;97916;-67
2022/08/25 01:42:04;;;;;;;24.80;11.10;;;;;;;19.42;66.68;99155.13;106062;1277;112048;-66
2022/08/25 01:44:35;;;;;;;27.70;10.80;;;;;;;19.40;66.76;99156.75;105981;1275;97970;-67
2022/08/25 01:47:05;;;;;;;29.80;10.40;;;;;;;19.40;66.83;99155.91;105895;1277;108430;-69
2022/08/25 01:49:33;;;;;;;31.60;10.90;;;;;;;19.39;66.89;99149.66;105957;1277;96376;-69
2022/08/25 01:52:27;;;;;;;34.00;10.50;;;;;;;19.39;66.89;99146.09;105870;1278;97930;-69
2022/08/25 01:54:56;;;;;;;30.30;11.10;;;;;;;19.38;67.07;99146.90;106078;1277;112120;-69
2022/08/25 01:57:23;;;;;;;29.30;11.80;;;;;;;19.36;66.94;99146.80;105993;1277;97973;-68
2022/08/25 01:59:51;;;;;;;32.90;11.70;;;;;;;19.35;67.09;99151.33;105994;1276;107489;-69
2022/08/25 02:02:19;;;;;;;24.60;11.00;;;;;;;19.35;67.07;99150.11;105923;1276;98459;-69
2022/08/25 02:04:48;;;;;;;30.00;12.20;;;;;;;19.36;67.15;99149.50;105996;1276;98049;-71
2022/08/25 02:07:18;;;;;;;32.40;11.40;;;;;;;19.35;67.16;99152.46;105958;1276;111702;-69
2022/08/25 02:09:46;;;;;;;33.50;12.90;;;;;;;19.34;67.24;99150.61;105945;1276;97886;-71
2022/08/25 02:12:14;;;;;;;33.60;11.90;;;;;;;19.33;67.26;99153.38;105920;1276;108077;-69
2022/08/25 02:14:42;;;;;;;30.40;12.70;;;;;;;19.33;67.36;99151.73;105951;1277;99017;-69
2022/08/25 02:17:10;;;;;;;41.40;13.30;;;;;;;19.33;67.28;99152.77;106040;1277;97925;-69
2022/08/25 02:19:38;;;;;;;40.30;13.60;;;;;;;19.34;67.42;99147.17;105940;1276;112722;-68
2022/08/25 02:22:07;;;;;;;34.20;13.40;;;;;;;19.34;67.51;99147.02;105847;1276;97889;-68
2022/08/25 02:24:35;;;;;;;41.50;13.80;;;;;;;19.34;67.55;99146.48;105882;1276;108370;-68
2022/08/25 02:27:04;;;;;;;39.30;12.80;;;;;;;19.34;67.58;99146.84;105942;1276;98756;-68
2022/08/25 02:29:32;;;;;;;40.20;13.00;;;;;;;19.34;67.65;99141.76;106005;1277;97931;-68
2022/08/25 02:32:02;;;;;;;39.60;13.50;;;;;;;19.34;67.74;99140.30;105894;1276;111437;-68
2022/08/25 02:34:30;;;;;;;38.60;13.30;;;;;;;19.35;67.81;99144.77;105976;1276;97902;-68
2022/08/25 02:36:59;;;;;;;39.40;14.00;;;;;;;19.34;67.76;99144.62;105959;1276;108751;-68
2022/08/25 02:39:27;;;;;;;40.00;15.10;;;;;;;19.34;67.84;99145.70;105919;1276;96319;-67
2022/08/25 02:41:55;;;;;;;44.40;16.10;;;;;;;19.35;67.89;99146.91;105972;1277;96592;-68
2022/08/25 02:44:23;;;;;;;40.80;15.50;;;;;;;19.34;67.98;99144.61;106012;1276;113178;-69
2022/08/25 02:46:51;;;;;;;41.30;14.90;;;;;;;19.34;68.01;99144.31;105953;1276;97889;-69
2022/08/25 02:49:19;;;;;;;43.40;16.10;;;;;;;19.34;68.03;99146.44;106087;1274;108481;-67
2022/08/25 02:51:48;;;;;;;44.00;17.00;;;;;;;19.35;68.03;99147.81;105905;1276;96372;-67
2022/08/25 02:54:15;;;;;;;41.70;16.40;;;;;;;19.34;68.13;99147.52;106076;1275;97937;-69
2022/08/25 02:56:43;;;;;;;48.40;17.70;;;;;;;19.33;68.12;99146.84;106024;1276;112060;-68
2022/08/25 02:59:12;;;;;;;46.70;17.10;;;;;;;19.33;68.18;99146.40;106072;1276;97963;-69
2022/08/25 03:01:41;;;;;;;46.20;18.00;;;;;;;19.31;68.30;99149.42;106053;1276;108506;-69
2022/08/25 03:04:10;;;;;;;63.20;19.40;;;;;;;19.31;68.29;99149.32;106004;1276;98007;-66
2022/08/25 03:06:38;;;;;;;41.30;18.10;;;;;;;19.30;68.38;99151.39;106095;1276;97947;-67
2022/08/25 03:09:07;;;;;;;48.20;17.80;;;;;;;19.29;68.41;99147.10;106088;1276;113010;-68
2022/08/25 03:11:37;;;;;;;46.00;18.10;;;;;;;19.29;68.45;99145.34;106101;1276;97963;-69
2022/08/25 03:14:08;;;;;;;44.40;18.50;;;;;;;19.29;68.56;99147.02;105948;1276;108768;-69
2022/08/25 03:16:37;;;;;;;47.30;18.50;;;;;;;19.26;68.48;99146.05;106027;1276;97961;-69
2022/08/25 03:19:05;;;;;;;52.50;18.90;;;;;;;19.26;68.68;99145.01;106109;1276;97860;-70
2022/08/25 03:21:37;;;;;;;46.00;18.20;;;;;;;19.26;68.70;99147.83;106035;1276;112118;-69
2022/08/25 03:24:06;;;;;;;46.00;17.60;;;;;;;19.26;68.76;99145.53;106076;1276;98442;-68
2022/08/25 03:26:53;;;;;;;42.00;18.30;;;;;;;19.25;68.76;99144.13;106031;1276;107830;-68
2022/08/25 03:29:32;;;;;;;37.30;17.70;;;;;;;19.26;68.86;99145.34;106038;1276;95318;-67
2022/08/25 03:32:00;;;;;;;44.10;20.00;;;;;;;19.26;69.02;99148.88;105972;1276;97849;-69
2022/08/25 03:34:29;;;;;;;46.10;18.20;;;;;;;19.28;69.03;99150.67;106064;1276;112462;-68
2022/08/25 03:36:58;;;;;;;44.80;18.50;;;;;;;19.29;69.00;99151.65;105924;1276;96416;-69
2022/08/25 03:39:27;;;;;;;46.40;18.00;;;;;;;19.30;68.98;99152.66;106020;1276;108354;-68
2022/08/25 03:41:55;;;;;;;48.00;19.30;;;;;;;19.28;69.12;99151.58;106060;1276;97928;-68
2022/08/25 03:44:24;;;;;;;49.20;18.30;;;;;;;19.27;69.22;99148.08;106071;1276;99026;-68
2022/08/25 03:46:52;;;;;;;58.30;18.50;;;;;;;19.27;69.28;99150.05;106090;1276;112170;-69
2022/08/25 03:49:23;;;;;;;52.50;19.20;;;;;;;19.26;69.21;99149.29;106073;1276;97929;-70
2022/08/25 03:51:53;;;;;;;48.90;18.70;;;;;;;19.25;69.31;99151.37;104979;1276;1426487;-69
2022/08/25 03:54:24;;;;;;;48.70;17.10;;;;;;;19.25;69.38;99151.74;106088;1276;97876;-68
2022/08/25 03:56:53;;;;;;;38.40;17.20;;;;;;;19.26;69.42;99156.09;106108;1276;97842;-68
2022/08/25 03:59:22;;;;;;;56.20;18.70;;;;;;;19.27;69.49;99149.89;106071;1276;112066;-68
2022/08/25 04:01:50;;;;;;;55.50;17.20;;;;;;;19.28;69.52;99148.55;105970;1277;98604;-68
2022/08/25 04:04:22;;;;;;;43.90;16.50;;;;;;;19.27;69.53;99152.45;106008;1277;107456;-69
2022/08/25 04:06:51;;;;;;;35.80;16.30;;;;;;;19.25;69.48;99150.11;106000;1276;98697;-68
2022/08/25 04:09:21;;;;;;;40.40;16.50;;;;;;;19.23;69.64;99146.38;106010;1274;97880;-67
2022/08/25 04:11:50;;;;;;;41.10;16.10;;;;;;;19.23;69.67;99146.71;106043;1276;109848;-68
2022/08/25 04:14:22;;;;;;;31.00;14.90;;;;;;;19.23;69.65;99144.23;105985;1276;98567;-66
2022/08/25 04:16:51;;;;;;;30.00;14.30;;;;;;;19.21;69.68;99143.71;106066;1276;110452;-69
2022/08/25 04:19:20;;;;;;;32.50;14.00;;;;;;;19.21;69.78;99141.69;106093;1276;97858;-78
2022/08/25 04:21:50;;;;;;;35.80;15.50;;;;;;;19.21;69.79;99137.23;106007;1276;97855;-80
2022/08/25 04:24:24;;;;;;;34.70;15.10;;;;;;;19.21;69.80;99135.05;106090;1276;111371;-79
2022/08/25 04:26:53;;;;;;;36.60;14.70;;;;;;;19.21;69.84;99128.75;106083;1276;98305;-78
2022/08/25 04:29:24;;;;;;;25.10;14.90;;;;;;;19.22;69.82;99127.97;106057;1276;107806;-74
2022/08/25 04:31:53;;;;;;;28.60;14.80;;;;;;;19.22;69.95;99125.08;106025;1276;95358;-76
2022/08/25 04:34:24;;;;;;;31.20;15.20;;;;;;;19.24;70.02;99123.96;106081;1276;97907;-76
2022/08/25 04:37:01;;;;;;;27.00;13.90;;;;;;;19.24;70.05;99122.69;106042;1276;111463;-78
2022/08/25 04:39:30;;;;;;;33.30;14.10;;;;;;;19.24;70.01;99127.52;106067;1277;97997;-73
2022/08/25 04:42:01;;;;;;;34.40;13.70;;;;;;;19.25;69.96;99124.41;106055;1276;107852;-72
2022/08/25 04:44:30;;;;;;;29.70;13.50;;;;;;;19.24;70.10;99123.39;106049;1276;96371;-71
2022/08/25 04:46:59;;;;;;;28.20;13.20;;;;;;;19.26;70.15;99127.92;106129;1276;97865;-73
2022/08/25 04:49:28;;;;;;;30.20;14.80;;;;;;;19.27;70.26;99125.21;106050;1276;112577;-72
2022/08/25 04:51:56;;;;;;;27.50;13.40;;;;;;;19.29;70.28;99127.88;106135;1276;97864;-70
2022/08/25 04:54:25;;;;;;;29.00;13.10;;;;;;;19.31;70.34;99129.64;106136;1276;107721;-71
2022/08/25 04:56:52;;;;;;;27.70;12.70;;;;;;;19.32;70.35;99136.76;106068;1276;97989;-69
2022/08/25 04:59:26;;;;;;;26.30;12.20;;;;;;;19.31;70.22;99138.85;106113;1276;97840;-72
2022/08/25 05:02:01;;;;;;;46.90;13.10;;;;;;;19.25;70.11;99139.70;105989;1276;111452;-73
2022/08/25 05:04:31;;;;;;;;;;;;;;;19.18;70.22;99141.85;106060;1276;97908;-72
2022/08/25 05:07:01;;;;;;;26.80;12.10;;;;;;;19.14;70.54;99138.02;106142;1276;107964;-72
2022/08/25 05:09:30;;;;;;;25.60;13.50;;;;;;;19.15;70.58;99131.98;106080;1276;95217;-73
2022/08/25 05:12:01;;;;;;;27.80;14.40;;;;;;;19.16;70.54;99133.92;105996;1276;95917;-73
2022/08/25 05:14:31;;;;;;;25.90;13.70;;;;;;;19.20;70.70;99132.30;106054;1276;112587;-73
2022/08/25 05:17:00;;;;;;;26.80;13.50;;;;;;;19.23;70.62;99132.46;106023;1276;95891;-73
2022/08/25 05:19:29;;;;;;;27.30;14.50;;;;;;;19.25;70.65;99139.09;105943;1276;108720;-72
2022/08/25 05:21:57;;;;;;;26.30;13.70;;;;;;;19.26;70.69;99138.15;106000;1276;97926;-72
2022/08/25 05:24:26;;;;;;;27.80;14.20;;;;;;;19.27;70.72;99140.33;106060;1276;97990;-71
2022/08/25 05:26:56;;;;;;;26.90;14.40;;;;;;;19.32;70.75;99142.89;106094;1276;111450;-71
2022/08/25 05:29:25;;;;;;;26.70;13.20;;;;;;;19.38;70.92;99143.02;106083;1276;97903;-71
2022/08/25 05:31:55;;;;;;;26.80;14.40;;;;;;;19.42;70.87;99143.98;105967;1276;108449;-77
2022/08/25 05:34:23;;;;;;;25.70;13.10;;;;;;;19.46;70.93;99144.95;106005;1277;97926;-75
2022/08/25 05:36:51;;;;;;;25.80;15.10;;;;;;;19.50;70.91;99143.61;106083;1276;98046;-74
2022/08/25 05:39:19;;;;;;;27.00;13.90;;;;;;;19.54;70.90;99146.48;106043;1276;111421;-75
2022/08/25 05:41:47;;;;;;;27.90;14.20;;;;;;;19.59;70.96;99147.92;105970;1276;97701;-76
2022/08/25 05:44:16;;;;;;;31.00;15.40;;;;;;;19.62;70.95;99151.30;106038;1276;107590;-72
2022/08/25 05:46:48;;;;;;;;;;;;;;;19.64;70.86;99156.15;106085;1276;97961;-74
2022/08/25 05:49:16;;;;;;;28.80;14.80;;;;;;;19.58;71.02;99156.92;105930;1276;95263;-74
2022/08/25 05:51:44;;;;;;;26.70;14.80;;;;;;;19.59;70.96;99151.80;105921;1276;111444;-74
2022/08/25 05:54:12;;;;;;;30.00;14.40;;;;;;;19.59;71.02;99153.77;105969;1274;96111;-74
2022/08/25 05:56:40;;;;;;;28.50;15.50;;;;;;;19.61;71.19;99151.94;105919;1276;107813;-73
2022/08/25 05:59:08;;;;;;;32.90;15.50;;;;;;;19.65;71.27;99151.14;105924;1276;98652;-72
2022/08/25 06:04:23;;;;;;;26.70;15.00;;;;;;;19.80;71.35;99151.94;105910;1276;111543;-73
2022/08/25 06:06:53;;;;;;;27.20;14.70;;;;;;;19.85;71.22;99152.21;105964;1276;97859;-73
2022/08/25 06:09:21;;;;;;;34.00;18.70;;;;;;;19.90;71.41;99152.11;105895;1276;107778;-74
2022/08/25 06:11:50;;;;;;;31.80;17.80;;;;;;;19.95;71.23;99157.64;105769;1276;97906;-73
2022/08/25 06:14:23;;;;;;;30.60;18.40;;;;;;;19.99;71.27;99157.59;105766;1276;98028;-71
2022/08/25 06:16:51;;;;;;;40.00;18.50;;;;;;;20.04;71.40;99155.97;105677;1276;111897;-73
2022/08/25 06:19:22;;;;;;;34.90;18.00;;;;;;;20.08;71.34;99152.65;105858;1276;95731;-73
2022/08/25 06:21:56;;;;;;;32.90;17.60;;;;;;;20.13;71.35;99155.71;105861;1276;107688;-72
2022/08/25 06:24:24;;;;;;;;;;;;;;;20.17;71.36;99154.50;105886;1275;97833;-73
2022/08/25 06:26:53;;;;;;;33.50;16.50;;;;;;;20.19;71.44;99155.73;105898;1277;97978;-70
2022/08/25 06:29:24;;;;;;;33.90;16.70;;;;;;;20.23;71.39;99159.07;105920;1276;111276;-71
2022/08/25 06:31:52;;;;;;;32.30;16.70;;;;;;;20.27;71.39;99163.13;105901;1276;95392;-76
2022/08/25 06:34:20;;;;;;;34.60;15.90;;;;;;;20.30;71.29;99162.45;105902;1276;107709;-74
2022/08/25 06:36:52;;;;;;;31.00;16.80;;;;;;;20.32;71.41;99163.27;105844;1275;97981;-73
2022/08/25 06:39:21;;;;;;;31.60;16.00;;;;;;;20.36;71.42;99164.65;105967;1276;97958;-75
2022/08/25 06:41:54;;;;;;;31.30;15.90;;;;;;;20.40;71.52;99168.14;105995;1276;111379;-76
2022/08/25 06:44:23;;;;;;;31.30;16.90;;;;;;;20.43;71.40;99167.27;105900;1276;99319;-72
2022/08/25 06:46:51;;;;;;;33.50;18.50;;;;;;;20.48;71.53;99167.14;105889;1276;107794;-75
2022/08/25 06:49:19;;;;;;;36.40;17.90;;;;;;;20.51;71.45;99171.02;105924;1277;95252;-72
2022/08/25 06:51:47;;;;;;;36.90;18.20;;;;;;;20.53;71.31;99170.84;105905;1275;97892;-73
2022/08/25 06:54:17;;;;;;;33.50;17.80;;;;;;;20.53;71.49;99166.70;105791;1275;111466;-73
2022/08/25 06:56:45;;;;;;;36.30;18.30;;;;;;;20.56;71.58;99169.09;105842;1275;98487;-75
2022/08/25 06:59:17;;;;;;;32.60;18.40;;;;;;;20.60;71.57;99173.83;105790;1275;107829;-72
2022/08/25 07:01:45;;;;;;;40.90;18.90;;;;;;;20.65;71.48;99172.52;105796;1277;97990;-69
2022/08/25 07:04:18;;;;;;;31.20;17.90;;;;;;;20.69;71.54;99175.42;105783;1277;97871;-72
2022/08/25 07:06:46;;;;;;;32.00;17.50;;;;;;;20.70;71.32;99169.84;105974;1276;111490;-69
2022/08/25 07:09:14;;;;;;;35.10;18.40;;;;;;;20.73;71.65;99171.83;105910;1275;97882;-72
2022/08/25 07:11:44;;;;;;;31.60;18.10;;;;;;;20.77;71.43;99172.75;105788;1275;107727;-72
2022/08/25 07:14:15;;;;;;;32.10;17.00;;;;;;;20.78;71.52;99170.58;105642;1276;98085;-71
2022/08/25 07:16:44;;;;;;;37.10;20.10;;;;;;;20.83;71.48;99172.58;105697;1274;97881;-71
2022/08/25 07:19:19;;;;;;;36.20;20.20;;;;;;;20.86;71.49;99172.87;105738;1276;111461;-71
2022/08/25 07:21:51;;;;;;;33.30;18.40;;;;;;;20.91;71.74;99171.23;105881;1274;98018;-71
2022/08/25 07:24:21;;;;;;;35.60;20.00;;;;;;;21.07;71.75;99169.09;105992;1276;107590;-67
2022/08/25 07:26:50;;;;;;;31.50;18.40;;;;;;;21.27;71.70;99169.27;105828;1275;97895;-67
2022/08/25 07:29:21;;;;;;;36.80;20.60;;;;;;;21.41;71.63;99171.45;105832;1276;97829;-68
2022/08/25 07:32:01;;;;;;;32.30;17.60;;;;;;;21.68;71.51;99170.02;105805;1275;112224;-69
2022/08/25 07:37:21;;;;;;;33.70;16.20;;;;;;;23.97;69.69;99172.78;105817;1276;108598;-69
2022/08/25 07:40:20;;;;;;;34.60;16.80;;;;;;;24.33;70.20;99171.95;105812;1274;99336;-68
2022/08/25 07:42:52;;;;;;;35.70;16.10;;;;;;;24.40;70.61;99174.38;105912;1275;98127;-68
2022/08/25 07:45:28;;;;;;;30.30;16.10;;;;;;;24.74;70.44;99174.66;105843;1276;111167;-67
2022/08/25 07:47:58;;;;;;;37.70;17.40;;;;;;;25.54;69.42;99172.31;105849;1276;95179;-67
2022/08/25 07:50:28;;;;;;;35.40;16.50;;;;;;;25.83;69.53;99171.61;105904;1275;108388;-69
2022/08/25 07:52:58;;;;;;;33.10;15.90;;;;;;;25.64;70.15;99172.18;105947;1276;96432;-68
2022/08/25 07:55:29;;;;;;;34.00;18.20;;;;;;;25.45;69.63;99168.08;105916;1276;98348;-68
2022/08/25 07:57:58;;;;;;;36.80;17.60;;;;;;;25.37;70.00;99164.77;105971;1276;111481;-73
2022/08/25 08:00:28;;;;;;;34.90;16.20;;;;;;;25.68;69.79;99164.69;105891;1276;96632;-72
2022/08/25 08:02:58;;;;;;;28.90;15.30;;;;;;;26.67;69.09;99163.13;105905;1276;107822;-72
2022/08/25 08:05:27;;;;;;;28.10;14.50;;;;;;;27.94;68.26;99162.83;105850;1275;97848;-68
2022/08/25 08:07:56;;;;;;;29.10;15.10;;;;;;;29.08;67.70;99167.42;105673;1276;97930;-68
2022/08/25 08:10:25;;;;;;;29.60;15.00;;;;;;;30.22;67.52;99162.37;106457;1274;112100;-67
2022/08/25 08:13:14;;;;;;;32.20;14.30;;;;;;;31.49;67.30;99159.23;106566;1276;98363;-67
2022/08/25 08:15:46;;;;;;;;;;;;;;;32.52;67.14;99161.55;106697;1276;108162;-67
2022/08/25 08:18:15;;;;;;;31.50;14.10;;;;;;;33.52;66.75;99160.04;105895;1276;95260;-68
2022/08/25 08:20:45;;;;;;;32.10;14.20;;;;;;;34.25;66.21;99158.23;105809;1277;97971;-67
2022/08/25 08:23:13;;;;;;;38.30;15.00;;;;;;;35.00;65.93;99157.56;105883;1276;112290;-68
2022/08/25 08:25:41;;;;;;;34.20;14.70;;;;;;;35.75;65.71;99157.34;105925;1276;96483;-68
2022/08/25 08:28:10;;;;;;;37.90;18.00;;;;;;;36.50;65.44;99156.83;106038;1276;108681;-67
2022/08/25 08:30:39;;;;;;;32.60;18.80;;;;;;;37.10;64.86;99160.35;105971;1276;97893;-67
2022/08/25 08:33:21;;;;;;;34.50;16.90;;;;;;;37.76;64.31;99157.83;105945;1276;97949;-69
2022/08/25 08:36:01;;;;;;;34.00;17.40;;;;;;;38.41;64.11;99157.52;106015;1276;112066;-68
2022/08/25 08:38:36;;;;;;;31.70;15.60;;;;;;;38.92;63.14;99158.48;105871;1276;98447;-69
2022/08/25 08:44:43;;;;;;;33.20;15.70;;;;;;;39.58;61.17;99154.55;105826;1276;97951;-67
2022/08/25 08:47:51;;;;;;;36.40;15.80;;;;;;;39.99;60.80;99156.61;105975;1276;95304;-68
2022/08/25 08:50:50;;;;;;;33.10;14.30;;;;;;;40.37;59.78;99157.92;106001;1276;111465;-69
2022/08/25 08:53:39;;;;;;;31.50;13.60;;;;;;;40.74;58.96;99156.42;106024;1276;98391;-68
2022/08/25 08:56:14;;;;;;;29.20;13.00;;;;;;;41.16;58.11;99156.67;106020;1276;108811;-67
2022/08/25 08:58:46;;;;;;;31.10;14.40;;;;;;;41.47;57.22;99154.28;105917;1276;98458;-67
2022/08/25 09:01:25;;;;;;;35.30;14.80;;;;;;;41.45;56.60;99156.27;105844;1276;98243;-67
2022/08/25 09:04:07;;;;;;;32.80;13.90;;;;;;;41.82;56.08;99150.81;105872;1276;111503;-68
2022/08/25 09:06:41;;;;;;;30.80;12.20;;;;;;;42.18;55.00;99150.82;105798;1276;96566;-67
2022/08/25 09:09:22;;;;;;;28.60;12.30;;;;;;;42.44;54.27;99150.13;105905;1276;107953;-67
2022/08/25 09:12:26;;;;;;;31.10;12.00;;;;;;;42.63;53.19;99144.83;105865;1276;96512;-68
2022/08/25 09:15:17;;;;;;;30.80;10.70;;;;;;;42.89;52.45;99139.21;105983;1276;97898;-69
2022/08/25 09:17:58;;;;;;;28.70;12.20;;;;;;;43.16;51.87;99140.87;105901;1276;112067;-67
2022/08/25 09:20:40;;;;;;;28.80;12.00;;;;;;;43.26;51.09;99138.39;105941;1276;98498;-65
2022/08/25 09:23:30;;;;;;;29.10;10.00;;;;;;;42.95;49.55;99138.38;105921;1276;107910;-68
2022/08/25 09:26:14;;;;;;;26.90;9.50;;;;;;;42.75;49.05;99134.70;105953;1276;96252;-66
2022/08/25 09:28:54;;;;;;;22.80;8.70;;;;;;;42.68;48.40;99139.48;105929;1276;97996;-68
2022/08/25 09:31:26;;;;;;;27.50;9.60;;;;;;;42.84;48.20;99139.59;105978;1276;111423;-68
2022/08/25 09:34:00;;;;;;;26.60;9.10;;;;;;;43.05;47.50;99135.59;105941;1276;97482;-68
2022/08/25 09:36:32;;;;;;;24.20;9.80;;;;;;;43.18;46.86;99134.73;105835;1276;108548;-67
2022/08/25 09:39:06;;;;;;;29.30;8.90;;;;;;;43.30;45.98;99133.05;105926;1276;97964;-65
2022/08/25 09:41:39;;;;;;;31.40;9.70;;;;;;;43.29;45.60;99133.58;105940;1276;97889;-68
2022/08/25 09:44:19;;;;;;;32.60;9.60;;;;;;;43.13;45.06;99132.67;106016;1276;112086;-71
2022/08/25 09:46:56;;;;;;;30.90;9.30;;;;;;;43.24;44.75;99127.67;105988;1276;97870;-68
2022/08/25 09:49:43;;;;;;;30.20;9.50;;;;;;;43.36;44.19;99123.34;105933;1276;107741;-69
2022/08/25 09:52:22;;;;;;;27.30;8.80;;;;;;;43.45;43.44;99118.12;105964;1276;98299;-70
2022/08/25 09:54:54;;;;;;;23.30;7.90;;;;;;;43.36;43.01;99117.73;105859;1276;97882;-70
2022/08/25 09:57:29;;;;;;;30.70;9.50;;;;;;;43.20;42.55;99114.64;105916;1276;111825;-69
2022/08/25 10:00:28;;;;;;;25.30;9.00;;;;;;;42.61;41.62;99109.66;105814;1276;97825;-67
2022/08/25 10:03:20;;;;;;;30.80;9.60;;;;;;;41.92;41.52;99107.30;105714;1276;107738;-69
2022/08/25 10:06:01;;;;;;;31.10;9.50;;;;;;;41.29;40.88;99103.91;105868;1276;95248;-68
2022/08/25 10:08:38;;;;;;;26.60;9.70;;;;;;;40.63;40.47;99102.45;105924;1276;97855;-68
2022/08/25 10:11:14;;;;;;;29.10;9.40;;;;;;;40.17;40.27;99099.08;105899;1276;113122;-70
2022/08/25 10:13:50;;;;;;;26.90;10.50;;;;;;;39.75;39.95;99097.55;105892;1276;96997;-69
2022/08/25 10:16:30;;;;;;;30.20;9.00;;;;;;;39.38;39.52;99093.04;105937;1276;107752;-69
2022/08/25 10:19:06;;;;;;;29.70;8.30;;;;;;;38.80;39.42;99088.08;105820;1276;98374;-68
2022/08/25 10:21:35;;;;;;;;;;;;;;;38.40;38.84;99085.36;105941;1275;97818;-72
2022/08/25 10:24:05;;;;;;;24.40;7.20;;;;;;;37.80;38.73;99084.14;106000;1276;111381;-72
2022/08/25 10:26:36;;;;;;;25.30;8.10;;;;;;;37.32;38.48;99089.25;105932;1277;97870;-70
2022/08/25 10:29:30;;;;;;;30.90;8.70;;;;;;;37.02;38.49;99087.79;105776;1276;108394;-69
2022/08/25 10:32:23;;;;;;;25.90;8.20;;;;;;;36.54;38.13;99085.29;105863;1276;97940;-68
2022/08/25 10:34:55;;;;;;;26.10;8.00;;;;;;;36.23;38.13;99084.18;105973;1276;95223;-68
2022/08/25 10:37:54;;;;;;;22.90;7.60;;;;;;;35.97;38.02;99084.29;105843;1276;112082;-68
2022/08/25 10:40:35;;;;;;;26.50;7.60;;;;;;;35.69;37.91;99080.50;105953;1275;98393;-69
2022/08/25 10:43:06;;;;;;;32.50;10.90;;;;;;;35.52;37.84;99082.48;106043;1276;106567;-68
2022/08/25 10:46:16;;;;;;;27.00;7.60;;;;;;;35.34;37.84;99076.50;105912;1276;97993;-70
2022/08/25 10:49:26;;;;;;;27.70;7.00;;;;;;;35.02;37.69;99073.30;105970;1275;98067;-69
2022/08/25 10:52:06;;;;;;;27.10;7.80;;;;;;;34.75;37.57;99066.31;105373;1282;112277;-69
2022/08/25 10:54:52;;;;;;;26.20;7.10;;;;;;;34.64;37.51;99067.55;105313;1282;98439;-69
2022/08/25 10:57:45;;;;;;;21.10;7.00;;;;;;;34.62;37.62;99068.05;105653;1276;109523;-69
2022/08/25 11:00:22;;;;;;;32.90;7.00;;;;;;;34.58;37.49;99065.23;105921;1274;97989;-69
2022/08/25 11:03:22;;;;;;;27.40;7.10;;;;;;;34.48;37.10;99067.16;105915;1276;98732;-66
2022/08/25 11:06:19;;;;;;;21.50;5.90;;;;;;;34.42;37.18;99063.37;105761;1277;112088;-69
2022/08/25 11:08:59;;;;;;;22.30;6.30;;;;;;;34.38;37.09;99058.80;105893;1276;97731;-69
2022/08/25 11:12:06;;;;;;;30.50;6.90;;;;;;;34.32;37.04;99056.95;105982;1276;107882;-67
2022/08/25 11:14:48;;;;;;;20.50;6.20;;;;;;;34.28;36.88;99055.34;105941;1275;96531;-71
2022/08/25 11:17:24;;;;;;;24.30;5.90;;;;;;;34.20;36.84;99043.98;105925;1276;98135;-66
2022/08/25 11:20:02;;;;;;;19.60;4.80;;;;;;;34.07;36.72;99044.14;105860;1276;112012;-69
2022/08/25 11:22:44;;;;;;;19.50;4.40;;;;;;;33.99;36.63;99044.77;105901;1276;97913;-72
2022/08/25 11:25:31;;;;;;;18.40;4.80;;;;;;;33.89;36.40;99040.15;105935;1276;107847;-71
2022/08/25 11:28:37;;;;;;;20.60;4.90;;;;;;;33.87;36.33;99036.38;105903;1276;98138;-71
2022/08/25 11:31:07;;;;;;;21.20;5.10;;;;;;;33.90;36.07;99036.79;105646;1276;97882;-69
2022/08/25 11:33:39;;;;;;;22.10;4.60;;;;;;;33.86;35.97;99032.95;105894;1276;111504;-70
2022/08/25 11:36:25;;;;;;;20.00;6.60;;;;;;;33.83;35.81;99027.20;106002;1277;98335;-69
2022/08/25 11:39:14;;;;;;;32.30;8.30;;;;;;;33.81;35.95;99026.38;105919;1276;109032;-66
2022/08/25 11:42:07;;;;;;;22.30;4.80;;;;;;;33.84;35.75;99029.30;106019;1275;97884;-68
2022/08/25 11:45:00;;;;;;;15.50;4.50;;;;;;;33.80;35.43;99024.71;105831;1276;97989;-69
2022/08/25 11:47:31;;;;;;;25.70;5.20;;;;;;;33.79;35.39;99019.19;105935;1275;112012;-70
2022/08/25 11:50:23;;;;;;;25.20;4.70;;;;;;;33.80;35.27;99011.27;106314;1276;98449;-68